Time,TemperatureF,DewpointF,PressureIn,WindDirection,WindDirectionDegrees,WindSpeedMPH,WindSpeedGustMPH,Humidity,HourlyPrecipIn,Conditions,Clouds,dailyrainin,SoftwareType,DateUTC
2013-06-26 00:42:00,72.0,34.0,-100.00,WSW,246,14.0,22.0,24,0.00,,,-99.99,,2013-06-26 00:42:00,
2013-06-26 01:01:00,73.0,33.0,-100.00,WSW,246,19.0,27.0,23,0.00,,,-99.99,,2013-06-26 01:01:00,
2013-06-26 01:43:00,72.0,33.0,-100.00,WSW,246,16.0,23.0,24,0.00,,,-99.99,,2013-06-26 01:43:00,
2013-06-26 01:52:00,72.0,33.0,-100.00,WSW,246,15.0,21.0,24,0.00,,,-99.99,,2013-06-26 01:52:00,
2013-06-26 02:02:00,71.0,33.0,-100.00,WSW,246,16.0,21.0,25,0.00,,,-99.99,,2013-06-26 02:02:00,
2013-06-26 02:11:00,71.0,33.0,-100.00,WSW,246,12.0,19.0,25,0.00,,,-99.99,,2013-06-26 02:11:00,
2013-06-26 02:34:00,70.0,33.0,-100.00,WSW,246,11.0,16.0,26,0.00,,,-99.99,,2013-06-26 02:34:00,
2013-06-26 02:43:00,69.0,33.0,-100.00,WSW,246,8.0,12.0,27,0.00,,,-99.99,,2013-06-26 02:43:00,
2013-06-26 03:02:00,67.0,33.0,-100.00,WSW,246,8.0,11.0,29,0.00,,,-99.99,,2013-06-26 03:02:00,
2013-06-26 03:11:00,66.0,33.0,-100.00,WSW,246,8.0,10.0,29,0.00,,,-99.99,,2013-06-26 03:11:00,
2013-06-26 03:43:00,65.0,33.0,-100.00,WSW,246,9.0,10.0,31,0.00,,,-99.99,,2013-06-26 03:43:00,
2013-06-26 04:12:00,63.0,34.0,-100.00,WSW,246,9.0,11.0,33,0.00,,,-99.99,,2013-06-26 04:12:00,
2013-06-26 04:43:00,58.0,35.0,-100.00,NW,304,7.0,9.0,42,0.00,,,-99.99,,2013-06-26 04:43:00,
2013-06-26 05:02:00,60.0,34.0,-100.00,West,278,7.0,10.0,37,0.00,,,-99.99,,2013-06-26 05:02:00,
2013-06-26 05:34:00,62.0,33.0,-100.00,WSW,237,9.0,11.0,33,0.00,,,-99.99,,2013-06-26 05:34:00,
2013-06-26 05:43:00,62.0,33.0,-100.00,WSW,239,9.0,11.0,33,0.00,,,-99.99,,2013-06-26 05:43:00,
2013-06-26 06:11:00,57.0,35.0,-100.00,WNW,298,7.0,11.0,42,0.00,,,-99.99,,2013-06-26 06:11:00,
2013-06-26 06:43:00,55.0,35.0,-100.00,WNW,301,7.0,9.0,47,0.00,,,-99.99,,2013-06-26 06:43:00,
2013-06-26 07:11:00,54.0,35.0,-100.00,WNW,298,4.0,7.0,49,0.00,,,-99.99,,2013-06-26 07:11:00,
2013-06-26 07:43:00,55.0,35.0,-100.00,West,281,2.0,4.0,46,0.00,,,-99.99,,2013-06-26 07:43:00,
2013-06-26 08:11:00,55.0,35.0,-100.00,WSW,248,3.0,6.0,46,0.00,,,-99.99,,2013-06-26 08:11:00,
2013-06-26 08:42:00,56.0,35.0,-100.00,WNW,289,6.0,7.0,44,0.00,,,-99.99,,2013-06-26 08:42:00,
2013-06-26 09:01:00,57.0,34.0,-100.00,WSW,243,6.0,9.0,42,0.00,,,-99.99,,2013-06-26 09:01:00,
2013-06-26 09:32:00,54.0,35.0,-100.00,NNE,30,3.0,6.0,48,0.00,,,-99.99,,2013-06-26 09:32:00,
2013-06-26 09:43:00,54.0,35.0,-100.00,NNE,18,1.0,4.0,47,0.00,,,-99.99,,2013-06-26 09:43:00,
2013-06-26 10:43:00,58.0,34.0,-100.00,SSE,167,3.0,5.0,41,0.00,,,-99.99,,2013-06-26 10:43:00,
2013-06-26 11:33:00,53.0,35.0,-100.00,SSE,157,10.0,14.0,50,0.00,,,-99.99,,2013-06-26 11:33:00,
2013-06-26 11:44:00,53.0,35.0,-100.00,SSE,160,10.0,13.0,52,0.00,,,-99.99,,2013-06-26 11:44:00,
2013-06-26 12:42:00,50.0,36.0,-100.00,East,97,1.0,3.0,57,0.00,,,-99.99,,2013-06-26 12:42:00,
2013-06-26 13:42:00,62.0,36.0,-100.00,NNE,27,2.0,8.0,39,0.00,,,-99.99,,2013-06-26 13:42:00,
2013-06-26 14:42:00,69.0,37.0,-100.00,ESE,113,16.0,18.0,31,0.00,,,-99.99,,2013-06-26 14:42:00,
2013-06-26 15:44:00,74.0,36.0,-100.00,ESE,113,15.0,20.0,25,0.00,,,-99.99,,2013-06-26 15:44:00,
2013-06-26 16:01:00,74.0,35.0,-100.00,ESE,113,13.0,19.0,23,0.00,,,-99.99,,2013-06-26 16:01:00,
2013-06-26 16:43:00,75.0,33.0,-100.00,ESE,113,16.0,24.0,21,0.00,,,-99.99,,2013-06-26 16:43:00,
2013-06-26 17:43:00,79.0,33.0,-100.00,ESE,113,16.0,26.0,18,0.00,,,-99.99,,2013-06-26 17:43:00,
2013-06-26 18:11:00,77.0,33.0,-100.00,ESE,113,17.0,27.0,19,0.00,,,-99.99,,2013-06-26 18:11:00,
2013-06-26 18:43:00,79.0,33.0,-100.00,ESE,113,16.0,24.0,19,0.00,,,-99.99,,2013-06-26 18:43:00,
2013-06-26 19:01:00,78.0,32.0,-100.00,ESE,113,17.0,25.0,19,0.00,,,-99.99,,2013-06-26 19:01:00,
2013-06-26 19:11:00,80.0,31.0,-100.00,ESE,113,15.0,29.0,17,0.00,,,-99.99,,2013-06-26 19:11:00,
2013-06-26 19:42:00,81.0,31.0,-100.00,ESE,113,13.0,23.0,16,0.00,,,-99.99,,2013-06-26 19:42:00,
2013-06-26 20:33:00,83.0,30.0,-100.00,ESE,113,19.0,26.0,15,0.00,,,-99.99,,2013-06-26 20:33:00,
2013-06-26 20:43:00,82.0,31.0,-100.00,ESE,113,17.0,27.0,15,0.00,,,-99.99,,2013-06-26 20:43:00,
2013-06-26 20:52:00,82.0,29.0,-100.00,ESE,113,17.0,27.0,15,0.00,,,-99.99,,2013-06-26 20:52:00,
2013-06-26 21:11:00,83.0,31.0,-100.00,ESE,113,14.0,25.0,15,0.00,,,-99.99,,2013-06-26 21:11:00,
2013-06-26 21:43:00,83.0,30.0,-100.00,ESE,113,15.0,30.0,15,0.00,,,-99.99,,2013-06-26 21:43:00,
2013-06-26 21:52:00,84.0,31.0,-100.00,ESE,113,17.0,28.0,15,0.00,,,-99.99,,2013-06-26 21:52:00,
2013-06-26 22:01:00,84.0,31.0,-100.00,ESE,113,16.0,24.0,15,0.00,,,-99.99,,2013-06-26 22:01:00,
2013-06-26 22:43:00,83.0,30.0,-100.00,ESE,113,17.0,25.0,15,0.00,,,-99.99,,2013-06-26 22:43:00,
2013-06-26 23:43:00,83.0,30.0,-100.00,ESE,113,14.0,22.0,15,0.00,,,-99.99,,2013-06-26 23:43:00,
2013-06-26 23:52:00,84.0,31.0,-100.00,ESE,113,10.0,14.0,15,0.00,,,-99.99,,2013-06-26 23:52:00,